createdAt,value
2022-10-21T00:01:42.262Z,16.23
2022-10-21T00:04:09.055Z,15.27
2022-10-21T00:06:35.805Z,16.08
2022-10-21T00:09:02.616Z,14.73
2022-10-21T00:11:29.456Z,13.65
2022-10-21T00:13:56.175Z,14.60
2022-10-21T00:16:22.935Z,14.38
2022-10-21T00:18:49.828Z,15.73
2022-10-21T00:21:19.302Z,14.82
2022-10-21T00:23:47.118Z,15.63
2022-10-21T00:26:14.960Z,16.48
2022-10-21T00:28:42.357Z,16.25
2022-10-21T00:31:11.636Z,15.32
2022-10-21T00:33:38.446Z,15.02
2022-10-21T00:36:07.635Z,14.55
2022-10-21T00:38:35.526Z,13.38
2022-10-21T00:41:02.511Z,15.30
2022-10-21T00:43:29.736Z,14.23
2022-10-21T00:46:02.987Z,15.20
2022-10-21T00:48:44.666Z,15.57
2022-10-21T00:51:16.403Z,14.88
2022-10-21T00:53:46.146Z,14.55
2022-10-21T00:56:18.234Z,14.40
2022-10-21T00:58:47.992Z,14.52
2022-10-21T01:01:17.970Z,14.75
2022-10-21T01:03:47.561Z,14.93
2022-10-21T01:06:15.743Z,14.52
2022-10-21T01:08:42.610Z,14.52
2022-10-21T01:11:15.655Z,14.90
2022-10-21T01:14:01.147Z,15.35
2022-10-21T01:16:33.938Z,18.23
2022-10-21T01:19:03.438Z,19.17
2022-10-21T01:21:48.155Z,17.88
2022-10-21T01:24:45.970Z,20.80
2022-10-21T01:27:33.131Z,20.48
2022-10-21T01:30:35.006Z,20.02
2022-10-21T01:33:23.475Z,20.30
2022-10-21T01:35:58.814Z,31.38
2022-10-21T01:38:42.687Z,26.35
2022-10-21T01:41:21.827Z,20.42
2022-10-21T01:44:04.242Z,21.42
2022-10-21T01:46:41.383Z,24.30
2022-10-21T01:49:16.021Z,16.85
2022-10-21T01:51:43.688Z,17.65
2022-10-21T01:54:14.772Z,17.52
2022-10-21T01:56:44.104Z,17.98
2022-10-21T01:59:13.587Z,17.88
2022-10-21T02:01:40.888Z,18.55
2022-10-21T02:04:09.931Z,19.02
2022-10-21T02:06:36.863Z,17.92
2022-10-21T02:09:03.745Z,18.23
2022-10-21T02:11:34.060Z,19.48
2022-10-21T02:14:23.132Z,19.40
2022-10-21T02:16:52.093Z,18.38
2022-10-21T02:19:20.405Z,19.08
2022-10-21T02:21:49.631Z,18.92
2022-10-21T02:24:19.783Z,19.23
2022-10-21T02:26:46.642Z,18.83
2022-10-21T02:29:14.830Z,19.45
2022-10-21T02:31:54.666Z,19.27
2022-10-21T02:34:39.527Z,18.27
2022-10-21T02:37:24.267Z,18.48
2022-10-21T02:40:13.215Z,19.00
2022-10-21T02:42:46.004Z,18.67
2022-10-21T02:45:12.891Z,17.42
2022-10-21T02:47:40.762Z,18.98
2022-10-21T02:50:08.196Z,17.80
2022-10-21T02:52:34.980Z,18.42
2022-10-21T02:55:01.835Z,20.17
2022-10-21T02:57:28.617Z,19.13
2022-10-21T02:59:55.362Z,18.27
2022-10-21T03:02:22.102Z,18.90
2022-10-21T03:04:48.846Z,18.27
2022-10-21T03:07:15.616Z,18.75
2022-10-21T03:09:42.387Z,18.42
2022-10-21T03:12:09.146Z,18.00
2022-10-21T03:14:35.955Z,18.50
2022-10-21T03:17:02.690Z,18.38
2022-10-21T03:19:29.438Z,18.48
2022-10-21T03:21:56.442Z,20.92
2022-10-21T03:24:28.551Z,20.02
2022-10-21T03:26:56.342Z,20.33
2022-10-21T03:29:23.092Z,20.70
2022-10-21T03:31:49.810Z,21.45
2022-10-21T03:34:16.636Z,21.58
2022-10-21T03:36:43.379Z,20.38
2022-10-21T03:39:11.517Z,20.08
2022-10-21T03:41:38.516Z,19.13
2022-10-21T03:44:05.314Z,20.92
2022-10-21T03:46:32.188Z,20.35
2022-10-21T03:49:02.826Z,19.10
2022-10-21T03:51:32.668Z,20.02
2022-10-21T03:53:59.421Z,20.10
2022-10-21T03:56:26.299Z,19.70
2022-10-21T03:58:56.378Z,19.50
2022-10-21T04:01:25.456Z,19.70
2022-10-21T04:03:52.298Z,19.08
2022-10-21T04:06:19.272Z,20.15
2022-10-21T04:08:46.118Z,18.90
2022-10-21T04:11:12.920Z,18.52
2022-10-21T04:13:39.664Z,26.25
2022-10-21T04:16:08.616Z,24.23
2022-10-21T04:18:35.501Z,20.17
2022-10-21T04:21:02.322Z,18.83
2022-10-21T04:23:29.582Z,19.95
2022-10-21T04:25:56.335Z,18.98
2022-10-21T04:28:23.319Z,20.30
2022-10-21T04:30:50.885Z,20.70
2022-10-21T04:33:17.870Z,19.60
2022-10-21T04:35:44.659Z,26.45
2022-10-21T04:38:11.429Z,22.27
2022-10-21T04:40:38.194Z,20.92
2022-10-21T04:43:05.194Z,20.95
2022-10-21T04:45:32.138Z,20.80
2022-10-21T04:47:58.842Z,21.77
2022-10-21T04:50:25.620Z,20.58
2022-10-21T04:52:52.497Z,22.13
2022-10-21T04:55:19.240Z,21.38
2022-10-21T04:57:46.181Z,20.98
2022-10-21T05:00:13.348Z,21.50
2022-10-21T05:02:40.444Z,20.60
2022-10-21T05:05:07.844Z,21.55
2022-10-21T05:07:34.612Z,22.20
2022-10-21T05:10:01.509Z,21.65
2022-10-21T05:12:28.303Z,22.13
2022-10-21T05:14:55.088Z,23.27
2022-10-21T05:17:21.855Z,22.60
2022-10-21T05:19:48.595Z,23.45
2022-10-21T05:22:15.335Z,23.42
2022-10-21T05:24:42.086Z,24.88
2022-10-21T05:27:08.854Z,24.52
2022-10-21T05:29:35.600Z,24.80
2022-10-21T05:32:02.340Z,23.02
2022-10-21T05:34:29.093Z,23.73
2022-10-21T05:36:55.826Z,22.33
2022-10-21T05:39:22.744Z,22.77
2022-10-21T05:41:49.496Z,22.40
2022-10-21T05:44:16.354Z,22.30
2022-10-21T05:46:43.080Z,22.50
2022-10-21T05:49:09.917Z,21.60
2022-10-21T05:51:36.640Z,21.33
2022-10-21T05:54:05.382Z,22.05
2022-10-21T05:56:32.440Z,23.45
2022-10-21T05:58:59.180Z,30.52
2022-10-21T06:01:25.992Z,23.33
2022-10-21T06:03:52.916Z,23.80
2022-10-21T06:06:19.704Z,24.80
2022-10-21T06:08:46.625Z,23.38
2022-10-21T06:11:16.721Z,23.70
2022-10-21T06:13:43.963Z,25.88
2022-10-21T06:16:12.539Z,23.67
2022-10-21T06:18:40.819Z,23.08
2022-10-21T06:21:07.885Z,23.40
2022-10-21T06:23:35.106Z,23.73
2022-10-21T06:26:08.408Z,24.13
2022-10-21T06:28:38.468Z,21.98
2022-10-21T06:31:06.587Z,23.38
2022-10-21T06:33:34.334Z,24.02
2022-10-21T06:36:01.360Z,23.60
2022-10-21T06:38:28.135Z,22.85
2022-10-21T06:41:02.110Z,24.05
2022-10-21T06:43:29.549Z,23.10
2022-10-21T06:46:04.498Z,23.30
2022-10-21T06:48:31.494Z,22.95
2022-10-21T06:51:03.750Z,23.45
2022-10-21T06:53:32.942Z,24.30
2022-10-21T06:56:08.202Z,24.48
2022-10-21T06:58:56.974Z,24.27
2022-10-21T07:01:34.719Z,24.00
2022-10-21T07:04:08.639Z,23.67
2022-10-21T07:06:35.499Z,27.50
2022-10-21T07:09:03.166Z,25.50
2022-10-21T07:11:29.966Z,25.60
2022-10-21T07:13:56.959Z,25.13
2022-10-21T07:16:32.384Z,25.20
2022-10-21T07:18:59.459Z,23.92
2022-10-21T07:21:27.996Z,25.92
2022-10-21T07:23:58.961Z,25.48
2022-10-21T07:26:28.277Z,23.42
2022-10-21T07:28:58.018Z,24.08
2022-10-21T07:31:25.216Z,25.00
2022-10-21T07:33:52.126Z,25.25
2022-10-21T07:36:25.271Z,26.75
2022-10-21T07:38:53.324Z,59.08
2022-10-21T07:41:29.465Z,52.38
2022-10-21T07:43:56.341Z,24.98
2022-10-21T07:46:23.631Z,23.38
2022-10-21T07:48:51.061Z,24.27
2022-10-21T07:51:21.053Z,23.83
2022-10-21T07:53:53.724Z,24.27
2022-10-21T07:56:25.831Z,23.75
2022-10-21T07:58:53.355Z,24.00
2022-10-21T08:01:21.070Z,23.88
2022-10-21T08:03:48.164Z,25.17
2022-10-21T08:06:17.422Z,27.25
2022-10-21T08:08:44.832Z,25.52
2022-10-21T08:11:12.484Z,22.55
2022-10-21T08:13:41.600Z,23.20
2022-10-21T08:16:08.410Z,24.27
2022-10-21T08:18:35.241Z,24.27
2022-10-21T08:21:04.260Z,22.85
2022-10-21T08:23:31.277Z,23.33
2022-10-21T08:26:00.809Z,23.23
2022-10-21T08:28:30.163Z,23.67
2022-10-21T08:31:11.686Z,23.45
2022-10-21T08:33:38.946Z,26.05
2022-10-21T08:36:07.728Z,22.80
2022-10-21T08:38:34.595Z,23.42
2022-10-21T08:41:02.357Z,23.40
2022-10-21T08:43:35.383Z,25.95
2022-10-21T08:46:08.186Z,25.50
2022-10-21T08:48:47.875Z,23.40
2022-10-21T08:51:32.372Z,22.60
2022-10-21T08:54:05.700Z,22.52
2022-10-21T08:56:32.740Z,24.35
2022-10-21T08:58:59.496Z,22.55
2022-10-21T09:01:34.117Z,21.75
2022-10-21T09:04:08.620Z,24.15
2022-10-21T09:06:35.395Z,24.23
2022-10-21T09:09:07.978Z,23.67
2022-10-21T09:11:52.972Z,23.35
2022-10-21T09:14:25.533Z,23.23
2022-10-21T09:17:08.440Z,24.35
2022-10-21T09:20:04.511Z,23.77
2022-10-21T09:22:40.579Z,22.98
2022-10-21T09:25:55.122Z,22.85
2022-10-21T09:28:24.286Z,23.02
2022-10-21T09:30:52.668Z,22.52
2022-10-21T09:33:22.535Z,23.27
2022-10-21T09:36:04.888Z,20.52
2022-10-21T09:38:46.584Z,20.77
2022-10-21T09:41:23.279Z,19.63
2022-10-21T09:43:50.883Z,20.52
2022-10-21T09:46:18.571Z,19.92
2022-10-21T09:51:40.312Z,21.08
2022-10-21T09:54:16.839Z,19.85
2022-10-21T09:56:57.121Z,19.63
2022-10-21T09:59:27.968Z,21.05
2022-10-21T10:02:07.317Z,21.30
2022-10-21T10:04:35.443Z,20.45
2022-10-21T10:07:19.517Z,20.17
2022-10-21T10:09:48.202Z,19.67
2022-10-21T10:12:23.904Z,19.85
2022-10-21T10:14:51.993Z,19.95
2022-10-21T10:17:38.812Z,19.55
2022-10-21T10:20:06.059Z,19.88
2022-10-21T10:22:43.268Z,20.10
2022-10-21T10:25:28.589Z,19.65
2022-10-21T10:28:25.006Z,20.00
2022-10-21T10:30:57.490Z,19.17
2022-10-21T10:33:26.085Z,18.60
2022-10-21T10:36:03.328Z,20.48
2022-10-21T10:41:18.616Z,19.15
2022-10-21T10:43:52.043Z,19.50
2022-10-21T10:46:32.506Z,19.08
2022-10-21T10:49:25.249Z,18.58
2022-10-21T10:52:21.549Z,19.80
2022-10-21T10:54:49.872Z,19.77
2022-10-21T10:57:34.362Z,19.58
2022-10-21T11:00:20.357Z,19.33
2022-10-21T11:05:45.264Z,20.17
2022-10-21T11:08:34.235Z,18.42
2022-10-21T11:11:05.849Z,18.50
2022-10-21T11:13:38.805Z,19.65
2022-10-21T11:16:44.883Z,19.48
2022-10-21T11:19:42.028Z,19.55
2022-10-21T11:22:21.073Z,20.42
2022-10-21T11:25:26.803Z,21.30
2022-10-21T11:27:59.124Z,18.60
2022-10-21T11:30:59.863Z,18.60
2022-10-21T11:33:29.495Z,18.52
2022-10-21T11:36:15.952Z,18.85
2022-10-21T11:39:10.432Z,18.05
2022-10-21T11:41:40.518Z,17.40
2022-10-21T11:44:38.723Z,17.83
2022-10-21T11:47:16.923Z,18.63
2022-10-21T11:49:55.711Z,17.58
2022-10-21T11:52:32.851Z,18.35
2022-10-21T11:55:16.073Z,17.77
2022-10-21T11:58:02.471Z,17.90
2022-10-21T12:00:41.990Z,17.88
2022-10-21T12:03:20.630Z,17.98
2022-10-21T12:05:52.820Z,17.45
2022-10-21T12:08:27.527Z,17.60
2022-10-21T12:11:06.265Z,17.17
2022-10-21T12:13:44.044Z,16.48
2022-10-21T12:16:16.137Z,17.55
2022-10-21T12:18:56.913Z,16.70
2022-10-21T12:21:31.250Z,16.63
2022-10-21T12:24:14.317Z,17.40
2022-10-21T12:26:53.538Z,16.27
2022-10-21T12:29:49.406Z,15.52
2022-10-21T12:32:27.205Z,16.13
2022-10-21T12:34:54.815Z,17.00
2022-10-21T12:37:52.662Z,16.15
2022-10-21T12:40:25.512Z,16.05
2022-10-21T12:43:20.085Z,16.88
2022-10-21T12:45:47.863Z,17.08
2022-10-21T12:48:38.327Z,17.52
2022-10-21T12:51:16.599Z,16.70
2022-10-21T12:54:02.150Z,15.85
2022-10-21T12:56:59.336Z,16.85
2022-10-21T12:59:34.053Z,17.23
2022-10-21T13:02:07.839Z,16.73
2022-10-21T13:04:34.576Z,16.92
2022-10-21T13:07:15.042Z,16.60
2022-10-21T13:09:51.162Z,17.25
2022-10-21T13:12:17.935Z,17.05
2022-10-21T13:14:53.995Z,16.52
2022-10-21T13:17:20.685Z,16.45
2022-10-21T13:19:55.761Z,16.55
2022-10-21T13:22:36.035Z,16.65
2022-10-21T13:25:32.392Z,16.63
2022-10-21T13:28:18.367Z,17.88
2022-10-21T13:30:51.004Z,17.75
2022-10-21T13:33:30.368Z,17.30
2022-10-21T13:36:08.051Z,18.38
2022-10-21T13:38:37.529Z,18.80
2022-10-21T13:41:18.119Z,19.90
2022-10-21T13:43:53.409Z,18.60
2022-10-21T13:46:26.735Z,18.20
2022-10-21T13:48:54.302Z,18.13
2022-10-21T13:51:27.624Z,18.35
2022-10-21T13:54:00.175Z,19.38
2022-10-21T13:56:38.236Z,18.10
2022-10-21T13:59:07.065Z,19.27
2022-10-21T14:01:49.028Z,18.60
2022-10-21T14:06:53.063Z,18.60
2022-10-21T14:09:24.273Z,17.83
2022-10-21T14:12:01.560Z,18.30
2022-10-21T14:14:30.009Z,30.25
2022-10-21T14:17:02.760Z,28.20
2022-10-21T14:19:36.728Z,19.73
2022-10-21T14:24:43.063Z,22.73
2022-10-21T14:27:16.704Z,20.02
2022-10-21T14:29:44.512Z,18.92
2022-10-21T14:32:15.559Z,21.25
2022-10-21T14:34:58.540Z,23.13
2022-10-21T14:37:25.367Z,20.65
2022-10-21T14:39:52.120Z,20.30
2022-10-21T14:42:22.364Z,22.45
2022-10-21T14:44:52.360Z,20.90
2022-10-21T14:47:24.910Z,21.42
2022-10-21T14:49:54.613Z,23.08
2022-10-21T14:52:42.704Z,23.00
2022-10-21T14:55:14.597Z,21.33
2022-10-21T15:00:41.644Z,21.67
2022-10-21T15:03:10.781Z,21.00
2022-10-21T15:05:48.587Z,21.65
2022-10-21T15:08:28.886Z,19.88
2022-10-21T15:11:02.263Z,21.38
2022-10-21T15:13:29.049Z,25.00
2022-10-21T15:15:59.010Z,21.17
2022-10-21T15:18:30.461Z,23.75
2022-10-21T15:21:06.030Z,21.00
2022-10-21T15:23:43.413Z,21.85
2022-10-21T15:26:16.256Z,22.02
2022-10-21T15:28:43.342Z,20.83
2022-10-21T15:31:28.233Z,20.42
2022-10-21T15:33:57.032Z,20.48
2022-10-21T15:36:24.510Z,18.83
2022-10-21T15:38:51.267Z,17.50
2022-10-21T15:41:21.230Z,19.15
2022-10-21T15:43:58.874Z,20.88
2022-10-21T15:46:27.240Z,20.80
2022-10-21T15:48:54.166Z,22.80
2022-10-21T15:51:21.016Z,21.55
2022-10-21T15:53:47.800Z,22.67
2022-10-21T15:56:18.823Z,20.45
2022-10-21T15:58:45.725Z,22.08
2022-10-21T16:01:15.000Z,21.15
2022-10-21T16:03:42.521Z,19.98
2022-10-21T16:06:16.449Z,19.40
2022-10-21T16:08:43.275Z,22.02
2022-10-21T16:11:15.271Z,21.92
2022-10-21T16:13:45.710Z,22.75
2022-10-21T16:16:21.855Z,22.13
2022-10-21T16:18:48.727Z,21.15
2022-10-21T16:21:16.111Z,23.60
2022-10-21T16:23:43.512Z,22.25
2022-10-21T16:26:25.008Z,22.27
2022-10-21T16:28:53.200Z,24.38
2022-10-21T16:31:20.047Z,23.52
2022-10-21T16:33:46.813Z,22.75
2022-10-21T16:36:13.706Z,22.23
2022-10-21T16:38:40.476Z,25.98
2022-10-21T16:41:15.501Z,23.95
2022-10-21T16:43:43.416Z,24.90
2022-10-21T16:46:24.902Z,25.48
2022-10-21T16:48:52.733Z,24.05
2022-10-21T16:51:22.671Z,23.90
2022-10-21T16:53:49.689Z,24.75
2022-10-21T16:56:17.178Z,22.98
2022-10-21T16:58:44.711Z,23.77
2022-10-21T17:01:18.049Z,24.73
2022-10-21T17:03:44.864Z,24.52
2022-10-21T17:06:21.008Z,26.15
2022-10-21T17:08:49.255Z,24.90
2022-10-21T17:11:20.793Z,23.63
2022-10-21T17:13:47.717Z,21.60
2022-10-21T17:16:15.574Z,22.23
2022-10-21T17:18:43.096Z,22.75
2022-10-21T17:21:22.964Z,22.70
2022-10-21T17:23:51.098Z,23.58
2022-10-21T17:26:19.012Z,23.83
2022-10-21T17:28:46.485Z,29.48
2022-10-21T17:31:21.998Z,26.02
2022-10-21T17:33:50.359Z,25.38
2022-10-21T17:36:18.368Z,23.88
2022-10-21T17:38:45.707Z,24.35
2022-10-21T17:41:15.080Z,24.55
2022-10-21T17:43:42.022Z,23.63
2022-10-21T17:46:15.871Z,23.95
2022-10-21T17:48:42.822Z,24.88
2022-10-21T17:51:09.771Z,31.65
2022-10-21T17:53:36.696Z,28.25
2022-10-21T17:56:06.856Z,23.90
2022-10-21T17:58:34.509Z,24.23
2022-10-21T18:01:10.116Z,23.42
2022-10-21T18:03:37.377Z,24.35
2022-10-21T18:06:06.451Z,24.02
2022-10-21T18:08:33.284Z,23.55
2022-10-21T18:11:00.809Z,23.80
2022-10-21T18:13:30.003Z,23.50
2022-10-21T18:16:07.278Z,22.60
2022-10-21T18:18:34.287Z,24.05
2022-10-21T18:21:05.966Z,25.13
2022-10-21T18:23:33.507Z,25.13
2022-10-21T18:26:25.012Z,24.25
2022-10-21T18:28:53.836Z,24.45
2022-10-21T18:31:24.399Z,25.05
2022-10-21T18:33:54.839Z,22.98
2022-10-21T18:36:22.415Z,22.30
2022-10-21T18:38:49.828Z,25.05
2022-10-21T18:41:20.501Z,25.60
2022-10-21T18:43:53.639Z,23.95
2022-10-21T18:46:21.414Z,23.48
2022-10-21T18:48:48.854Z,24.00
2022-10-21T18:51:17.066Z,24.80
2022-10-21T18:53:47.240Z,24.10
2022-10-21T18:56:17.480Z,24.70
2022-10-21T18:58:44.680Z,25.50
2022-10-21T19:01:12.209Z,25.20
2022-10-21T19:03:39.132Z,29.48
2022-10-21T19:06:19.511Z,28.85
2022-10-21T19:08:47.717Z,29.92
2022-10-21T19:11:14.563Z,26.80
2022-10-21T19:13:41.352Z,28.92
2022-10-21T19:16:08.240Z,26.77
2022-10-21T19:18:35.111Z,27.35
2022-10-21T19:21:01.908Z,27.63
2022-10-21T19:23:31.632Z,26.42
2022-10-21T19:26:08.848Z,28.98
2022-10-21T19:28:36.540Z,25.65
2022-10-21T19:31:03.812Z,26.55
2022-10-21T19:33:31.130Z,26.20
2022-10-21T19:36:02.070Z,27.55
2022-10-21T19:38:43.387Z,27.83
2022-10-21T19:41:13.664Z,27.63
2022-10-21T19:43:40.413Z,27.48
2022-10-21T19:46:08.454Z,26.38
2022-10-21T19:48:36.841Z,29.60
2022-10-21T19:51:04.693Z,28.25
2022-10-21T19:53:34.160Z,29.00
2022-10-21T19:56:05.636Z,29.52
2022-10-21T19:58:33.620Z,27.17
2022-10-21T20:01:09.042Z,27.70
2022-10-21T20:03:40.119Z,27.30
2022-10-21T20:08:44.071Z,29.20
2022-10-21T20:11:19.384Z,27.23
2022-10-21T20:13:47.130Z,26.67
2022-10-21T20:16:16.292Z,26.40
2022-10-21T20:18:43.252Z,26.63
2022-10-21T20:21:10.004Z,28.83
2022-10-21T20:23:36.849Z,27.60
2022-10-21T20:26:04.601Z,28.58
2022-10-21T20:28:31.943Z,27.38
2022-10-21T20:31:11.203Z,28.40
2022-10-21T20:33:41.327Z,29.40
2022-10-21T20:36:12.509Z,27.88
2022-10-21T20:38:39.723Z,28.10
2022-10-21T20:41:09.561Z,30.52
2022-10-21T20:43:37.984Z,29.60
2022-10-21T20:46:07.564Z,27.92
2022-10-21T20:48:34.811Z,26.35
2022-10-21T20:51:07.839Z,27.45
2022-10-21T20:53:35.609Z,26.73
2022-10-21T20:56:03.722Z,31.40
2022-10-21T20:58:33.395Z,31.70
2022-10-21T21:01:10.251Z,30.35
2022-10-21T21:03:39.191Z,30.58
2022-10-21T21:06:07.124Z,31.33
2022-10-21T21:08:44.569Z,30.50
2022-10-21T21:13:44.658Z,31.92
2022-10-21T21:16:17.119Z,51.17
2022-10-21T21:18:49.532Z,46.00
2022-10-21T21:21:18.540Z,38.75
2022-10-21T21:23:45.535Z,36.38
2022-10-21T21:26:21.580Z,33.33
2022-10-21T21:28:49.034Z,34.85
2022-10-21T21:31:15.814Z,32.55
2022-10-21T21:33:43.026Z,32.30
2022-10-21T21:36:10.312Z,35.17
2022-10-21T21:38:37.520Z,33.42
2022-10-21T21:41:08.100Z,33.40
2022-10-21T21:43:38.027Z,32.90
2022-10-21T21:46:05.115Z,32.75
2022-10-21T21:48:32.482Z,31.75
2022-10-21T21:51:07.859Z,31.55
2022-10-21T21:53:34.606Z,31.58
2022-10-21T21:56:03.401Z,29.77
2022-10-21T21:58:30.643Z,32.65
2022-10-21T22:00:57.716Z,36.05
2022-10-21T22:03:24.492Z,36.35
2022-10-21T22:05:51.460Z,35.85
2022-10-21T22:08:18.202Z,31.95
2022-10-21T22:10:44.945Z,33.20
2022-10-21T22:13:12.789Z,33.60
2022-10-21T22:15:48.443Z,33.75
2022-10-21T22:18:15.819Z,32.40
2022-10-21T22:20:42.649Z,30.88
2022-10-21T22:23:09.389Z,32.17
2022-10-21T22:25:36.159Z,30.45
2022-10-21T22:28:02.948Z,30.73
2022-10-21T22:30:29.752Z,31.13
2022-10-21T22:32:56.516Z,30.88
2022-10-21T22:35:23.279Z,31.42
2022-10-21T22:37:50.056Z,32.05
2022-10-21T22:40:16.820Z,32.20
2022-10-21T22:45:11.235Z,31.02
2022-10-21T22:47:38.208Z,29.80
2022-10-21T22:50:05.539Z,30.33
2022-10-21T22:52:32.333Z,31.42
2022-10-21T22:54:59.073Z,30.23
2022-10-21T22:57:25.880Z,31.67
2022-10-21T22:59:53.603Z,30.23
2022-10-21T23:02:20.741Z,30.20
2022-10-21T23:04:47.482Z,29.83
2022-10-21T23:07:14.233Z,29.13
2022-10-21T23:09:41.001Z,28.88
2022-10-21T23:12:07.964Z,27.90
2022-10-21T23:14:35.224Z,30.52
2022-10-21T23:17:01.958Z,33.20
2022-10-21T23:19:28.726Z,28.77
2022-10-21T23:21:55.516Z,29.08
2022-10-21T23:24:22.306Z,28.38
2022-10-21T23:26:49.094Z,29.83
2022-10-21T23:29:15.862Z,31.13
2022-10-21T23:31:42.641Z,31.27
2022-10-21T23:34:10.070Z,30.15
2022-10-21T23:36:37.099Z,28.73
2022-10-21T23:39:04.571Z,29.23
2022-10-21T23:41:31.334Z,28.98
2022-10-21T23:43:58.110Z,27.92
2022-10-21T23:46:25.051Z,27.90
2022-10-21T23:48:51.972Z,27.58
2022-10-21T23:51:19.433Z,72.30
2022-10-21T23:53:46.743Z,30.52
2022-10-21T23:56:13.537Z,47.83
2022-10-21T23:58:40.276Z,28.92
